Time;durP1;ratioP1;P1;durP2;ratioP2;P2;SDS_P1;SDS_P2;PMS_P1;PMS_P2;Temp;Humidity;BMP_temperature;BMP_pressure;BME280_temperature;BME280_humidity;BME280_pressure;Samples;Min_cycle;Max_cycle;Signal;HPM_P1;HPM_P2
2023/03/15 06:00:49;;;;;;;5.20;3.10;;;3.70;97.20;;;;;;1708664;28;20199;-66
2023/03/15 06:01:39;;;;;;;5.63;2.58;;;3.70;97.20;;;;;;1708503;28;20273;-67
2023/03/15 06:02:31;;;;;;;5.43;3.70;;;3.70;97.20;;;;;;1708625;28;20194;-67
2023/03/15 06:03:22;;;;;;;4.60;2.88;;;3.60;97.20;;;;;;1708480;28;20684;-67
2023/03/15 06:04:13;;;;;;;6.03;3.07;;;3.60;97.20;;;;;;1708466;28;20671;-67
2023/03/15 06:05:05;;;;;;;5.15;2.58;;;3.60;97.20;;;;;;1708512;28;20557;-67
2023/03/15 06:05:57;;;;;;;7.43;3.05;;;3.60;97.20;;;;;;1708469;28;20212;-67
2023/03/15 06:06:48;;;;;;;6.85;3.00;;;3.60;97.20;;;;;;1708539;28;20217;-67
2023/03/15 06:07:39;;;;;;;4.70;2.80;;;3.60;97.20;;;;;;1708508;28;20213;-67
2023/03/15 06:08:30;;;;;;;5.55;3.22;;;3.60;97.20;;;;;;1708546;28;20230;-68
2023/03/15 06:09:22;;;;;;;4.27;2.70;;;3.60;97.20;;;;;;1708486;28;20653;-67
2023/03/15 06:10:13;;;;;;;5.20;3.28;;;3.60;97.20;;;;;;1708378;28;20445;-67
2023/03/15 06:11:04;;;;;;;5.73;3.10;;;3.60;97.20;;;;;;1708431;28;20205;-68
2023/03/15 06:11:55;;;;;;;8.65;2.80;;;3.60;97.20;;;;;;1708897;28;20468;-67
2023/03/15 06:12:47;;;;;;;6.53;3.90;;;3.60;97.20;;;;;;1712065;28;20218;-68
2023/03/15 06:13:37;;;;;;;6.28;3.13;;;3.60;97.20;;;;;;1714785;28;20205;-67
2023/03/15 06:14:29;;;;;;;4.43;2.80;;;3.50;97.20;;;;;;1714843;28;20198;-67
2023/03/15 06:15:20;;;;;;;5.55;2.90;;;3.50;97.20;;;;;;1715099;28;20220;-67
2023/03/15 06:16:13;;;;;;;5.17;3.53;;;3.50;97.20;;;;;;1715092;28;20197;-67
2023/03/15 06:17:04;;;;;;;4.60;2.70;;;3.50;97.20;;;;;;1714923;28;20213;-67
2023/03/15 06:17:55;;;;;;;7.07;2.80;;;3.50;97.20;;;;;;1714743;28;20189;-67
2023/03/15 06:18:46;;;;;;;4.35;3.10;;;3.50;97.20;;;;;;1714850;28;20237;-67
2023/03/15 06:19:38;;;;;;;4.07;2.50;;;3.60;97.20;;;;;;1715107;28;20209;-66
2023/03/15 06:20:29;;;;;;;5.82;3.45;;;3.60;97.20;;;;;;1715033;28;20651;-66
2023/03/15 06:21:21;;;;;;;7.03;3.08;;;3.60;97.20;;;;;;1715032;28;20236;-67
2023/03/15 06:22:12;;;;;;;5.10;2.72;;;3.60;97.20;;;;;;1715025;28;20591;-66
2023/03/15 06:23:04;;;;;;;6.67;2.70;;;3.70;97.20;;;;;;1714435;28;20571;-65
2023/03/15 06:23:54;;;;;;;5.50;3.40;;;3.70;97.20;;;;;;1715054;28;20445;-65
2023/03/15 06:24:46;;;;;;;5.23;3.20;;;3.70;97.20;;;;;;1714758;28;20209;-66
2023/03/15 06:25:37;;;;;;;7.85;2.75;;;3.80;97.20;;;;;;1714928;28;20217;-66
2023/03/15 06:26:29;;;;;;;9.33;3.10;;;3.80;97.20;;;;;;1715111;28;20206;-69
2023/03/15 06:27:20;;;;;;;6.30;3.50;;;3.80;97.20;;;;;;1715097;28;20213;-65
2023/03/15 06:28:12;;;;;;;5.20;2.90;;;3.80;97.20;;;;;;1715021;28;20204;-67
2023/03/15 06:29:03;;;;;;;5.13;3.03;;;3.80;97.20;;;;;;1714656;28;20213;-66
2023/03/15 06:29:55;;;;;;;6.80;3.37;;;3.90;97.20;;;;;;1715087;28;20678;-66
2023/03/15 06:30:45;;;;;;;9.70;3.08;;;3.90;97.20;;;;;;1714690;28;20244;-66
2023/03/15 06:31:38;;;;;;;6.30;3.13;;;3.90;97.20;;;;;;1715034;28;20202;-67
2023/03/15 06:32:29;;;;;;;7.20;3.50;;;3.90;97.20;;;;;;1714881;28;20332;-66
2023/03/15 06:33:23;;;;;;;5.30;3.30;;;3.90;97.20;;;;;;1714977;28;20225;-66
2023/03/15 06:34:13;;;;;;;6.28;2.90;;;3.90;97.20;;;;;;1714966;28;20256;-66
2023/03/15 06:35:06;;;;;;;3.70;2.70;;;3.90;97.20;;;;;;1715066;28;20202;-67
2023/03/15 06:35:57;;;;;;;8.27;3.40;;;4.00;97.20;;;;;;1714606;28;20209;-68
2023/03/15 06:36:51;;;;;;;5.30;3.23;;;4.00;97.20;;;;;;1712160;28;20228;-67
2023/03/15 06:37:42;;;;;;;5.93;3.10;;;4.00;97.20;;;;;;1711202;28;20233;-67
2023/03/15 06:38:33;;;;;;;5.50;2.87;;;4.00;97.20;;;;;;1710915;28;20194;-69
2023/03/15 06:39:24;;;;;;;5.38;2.80;;;4.00;97.20;;;;;;1714517;28;20202;-67
2023/03/15 06:40:16;;;;;;;6.23;3.97;;;4.10;97.20;;;;;;1714885;28;20202;-67
2023/03/15 06:41:07;;;;;;;4.68;3.50;;;4.10;97.20;;;;;;1714551;28;20202;-68
2023/03/15 06:42:01;;;;;;;7.15;3.20;;;4.10;97.20;;;;;;1714945;28;20198;-66
2023/03/15 06:42:53;;;;;;;6.95;4.00;;;4.10;97.20;;;;;;1714726;28;20660;-65
2023/03/15 06:43:45;;;;;;;8.23;3.65;;;4.20;97.20;;;;;;1714742;28;20260;-66
2023/03/15 06:44:35;;;;;;;8.95;3.25;;;4.20;97.20;;;;;;1714440;28;20209;-66
2023/03/15 06:45:29;;;;;;;8.40;2.73;;;4.30;97.20;;;;;;1714606;28;20208;-66
2023/03/15 06:46:20;;;;;;;5.82;3.50;;;4.30;97.20;;;;;;1714853;28;20292;-66
2023/03/15 06:47:13;;;;;;;5.43;3.23;;;4.30;97.20;;;;;;1714920;28;20256;-66
2023/03/15 06:48:04;;;;;;;11.32;3.13;;;4.30;97.20;;;;;;1714801;28;20206;-67
2023/03/15 06:48:56;;;;;;;8.13;3.13;;;4.30;97.20;;;;;;1709778;28;20204;-70
2023/03/15 06:49:49;;;;;;;5.55;3.50;;;4.30;97.20;;;;;;1709428;28;20206;-70
2023/03/15 06:50:40;;;;;;;5.20;3.00;;;4.40;97.20;;;;;;1713456;28;20654;-66
2023/03/15 06:51:31;;;;;;;8.00;3.30;;;4.40;97.20;;;;;;1711450;28;20205;-66
2023/03/15 06:52:23;;;;;;;6.80;2.97;;;4.40;97.20;;;;;;1713975;28;20201;-65
2023/03/15 06:53:15;;;;;;;6.03;2.85;;;4.40;97.20;;;;;;1710201;28;20476;-67
2023/03/15 06:54:06;;;;;;;10.02;3.00;;;4.40;97.20;;;;;;1710127;28;20194;-68
2023/03/15 06:54:57;;;;;;;4.82;2.85;;;4.40;97.20;;;;;;1709911;28;20686;-67
2023/03/15 06:55:51;;;;;;;5.60;3.27;;;4.40;97.20;;;;;;1709839;28;20649;-67
2023/03/15 06:56:41;;;;;;;6.18;3.00;;;4.40;97.20;;;;;;1711219;28;20571;-67
2023/03/15 06:57:33;;;;;;;7.28;3.50;;;4.50;97.20;;;;;;1710154;28;20372;-67
2023/03/15 06:58:24;;;;;;;8.98;3.47;;;4.50;97.20;;;;;;1709524;28;20210;-69
2023/03/15 06:59:16;;;;;;;5.72;2.85;;;4.50;97.20;;;;;;1711098;28;20285;-67
2023/03/15 07:00:10;;;;;;;7.22;3.05;;;4.50;97.20;;;;;;1711238;28;20234;-66
2023/03/15 07:01:02;;;;;;;8.00;3.53;;;4.60;97.20;;;;;;1712015;28;20198;-67
2023/03/15 07:01:53;;;;;;;10.27;4.07;;;4.60;97.20;;;;;;1710979;28;20230;-68
2023/03/15 07:02:46;;;;;;;5.43;3.17;;;4.60;97.20;;;;;;1711308;28;20201;-67
2023/03/15 07:03:37;;;;;;;6.43;3.25;;;4.70;97.20;;;;;;1710358;28;20205;-67
2023/03/15 07:04:28;;;;;;;8.20;3.20;;;4.70;97.20;;;;;;1709900;28;20205;-67
2023/03/15 07:05:19;;;;;;;8.10;3.40;;;4.70;97.20;;;;;;1708099;28;20206;-69
2023/03/15 07:06:11;;;;;;;5.23;3.10;;;4.80;97.20;;;;;;1708028;28;20214;-67
2023/03/15 07:07:03;;;;;;;5.55;3.30;;;4.80;97.20;;;;;;1708069;28;20209;-67
2023/03/15 07:07:53;;;;;;;7.50;3.47;;;4.80;97.20;;;;;;1708225;28;20213;-67
2023/03/15 07:08:45;;;;;;;5.47;3.20;;;4.80;97.20;;;;;;1706760;28;20206;-66
2023/03/15 07:09:36;;;;;;;7.82;3.55;;;4.80;97.20;;;;;;1707999;28;20241;-66
2023/03/15 07:10:28;;;;;;;7.10;3.47;;;4.80;97.20;;;;;;1710172;28;20202;-66
2023/03/15 07:11:19;;;;;;;4.72;2.60;;;4.80;97.20;;;;;;1707949;28;20959;-67
2023/03/15 07:12:11;;;;;;;7.97;3.27;;;4.80;97.20;;;;;;1707994;28;20204;-68
2023/03/15 07:13:03;;;;;;;5.88;2.80;;;4.80;97.20;;;;;;1712972;28;20532;-67
2023/03/15 07:13:55;;;;;;;4.40;2.72;;;4.80;97.20;;;;;;1714752;28;20202;-66
2023/03/15 07:14:46;;;;;;;4.65;2.55;;;4.80;97.20;;;;;;1714128;28;20232;-67
2023/03/15 07:15:38;;;;;;;5.97;2.83;;;4.80;97.20;;;;;;1711669;28;20198;-67
2023/03/15 07:16:28;;;;;;;6.80;3.08;;;4.80;97.20;;;;;;1708034;28;20203;-66
2023/03/15 07:17:20;;;;;;;4.43;2.80;;;4.80;97.20;;;;;;1708027;28;20202;-66
2023/03/15 07:18:12;;;;;;;7.82;3.78;;;4.80;97.20;;;;;;1708102;28;20310;-66
2023/03/15 07:19:04;;;;;;;6.93;3.47;;;4.80;97.20;;;;;;1710616;28;20210;-66
2023/03/15 07:19:55;;;;;;;6.25;2.80;;;4.80;97.20;;;;;;1714593;28;20209;-66
2023/03/15 07:20:47;;;;;;;7.33;3.20;;;4.90;97.20;;;;;;1714590;28;20226;-69
2023/03/15 07:21:37;;;;;;;9.38;4.32;;;4.90;97.20;;;;;;1714772;28;20245;-67
2023/03/15 07:22:29;;;;;;;4.43;2.87;;;4.90;97.20;;;;;;1714436;28;20198;-67
2023/03/15 07:23:20;;;;;;;5.95;3.22;;;4.90;97.20;;;;;;1714051;28;20340;-68
2023/03/15 07:24:11;;;;;;;6.50;2.50;;;5.00;97.20;;;;;;1713967;28;20901;-67
2023/03/15 07:25:03;;;;;;;6.65;3.03;;;5.00;97.20;;;;;;1713734;28;20233;-66
2023/03/15 07:25:55;;;;;;;7.50;2.50;;;5.00;97.20;;;;;;1714619;28;20290;-67
2023/03/15 07:26:46;;;;;;;5.57;2.63;;;5.00;97.20;;;;;;1714300;28;20228;-68
2023/03/15 07:27:37;;;;;;;5.83;2.80;;;5.10;97.20;;;;;;1714630;28;20201;-66
2023/03/15 07:28:28;;;;;;;6.43;3.17;;;5.10;97.20;;;;;;1714611;28;20585;-67
2023/03/15 07:29:20;;;;;;;8.03;3.27;;;5.10;97.20;;;;;;1714591;28;20220;-66
2023/03/15 07:30:12;;;;;;;9.57;3.22;;;5.10;97.20;;;;;;1713806;28;20445;-66
2023/03/15 07:31:06;;;;;;;6.35;3.25;;;5.10;97.20;;;;;;1714563;28;20216;-67
2023/03/15 07:31:56;;;;;;;4.05;2.47;;;5.10;97.20;;;;;;1714645;28;20647;-67
2023/03/15 07:32:48;;;;;;;4.07;2.77;;;5.10;97.20;;;;;;1714510;28;20546;-66
2023/03/15 07:33:40;;;;;;;6.13;2.83;;;5.10;97.20;;;;;;1714646;28;20480;-67
2023/03/15 07:34:32;;;;;;;5.53;2.60;;;5.10;97.20;;;;;;1714402;28;20570;-67
2023/03/15 07:35:23;;;;;;;4.15;2.50;;;5.10;97.20;;;;;;1714498;28;20233;-66
2023/03/15 07:36:15;;;;;;;7.50;2.57;;;5.10;97.20;;;;;;1714568;28;20221;-66
2023/03/15 07:37:05;;;;;;;5.97;3.28;;;5.10;97.20;;;;;;1714621;28;20201;-66
2023/03/15 07:37:57;;;;;;;5.77;2.90;;;5.10;97.20;;;;;;1714631;28;20212;-67
2023/03/15 07:38:48;;;;;;;3.30;2.20;;;5.10;97.20;;;;;;1714489;28;20452;-66
2023/03/15 07:39:40;;;;;;;3.93;2.53;;;5.10;97.20;;;;;;1714663;28;20206;-67
2023/03/15 07:40:30;;;;;;;4.72;2.53;;;5.10;97.20;;;;;;1714648;28;20239;-66
2023/03/15 07:41:22;;;;;;;5.90;2.77;;;5.20;97.20;;;;;;1714554;28;20202;-67
2023/03/15 07:42:13;;;;;;;5.75;2.70;;;5.10;97.20;;;;;;1714603;28;20216;-67
2023/03/15 07:43:05;;;;;;;4.93;2.50;;;5.20;97.20;;;;;;1714378;28;20202;-67
2023/03/15 07:43:56;;;;;;;5.53;2.85;;;5.20;97.20;;;;;;1714232;28;20213;-66
2023/03/15 07:44:47;;;;;;;6.67;2.63;;;5.20;97.20;;;;;;1714391;28;20240;-69
2023/03/15 07:45:38;;;;;;;4.95;2.50;;;5.30;97.20;;;;;;1714571;28;20622;-66
2023/03/15 07:46:30;;;;;;;4.90;2.10;;;5.30;97.20;;;;;;1714568;28;20198;-67
2023/03/15 07:47:21;;;;;;;6.30;2.80;;;5.40;97.20;;;;;;1713252;28;20820;-66
2023/03/15 07:48:12;;;;;;;5.87;2.70;;;5.40;97.20;;;;;;1714244;28;20224;-66
2023/03/15 07:49:04;;;;;;;3.65;2.45;;;5.40;97.20;;;;;;1714503;28;20212;-66
2023/03/15 07:49:56;;;;;;;7.60;2.80;;;5.40;97.20;;;;;;1714228;28;20213;-67
2023/03/15 07:50:47;;;;;;;6.90;2.97;;;5.40;97.20;;;;;;1714488;28;20249;-67
2023/03/15 07:51:39;;;;;;;4.93;2.88;;;5.40;97.20;;;;;;1714552;28;20198;-67
2023/03/15 07:52:30;;;;;;;3.72;2.30;;;5.40;97.20;;;;;;1714534;28;20205;-67
2023/03/15 07:53:21;;;;;;;3.60;2.70;;;5.50;97.20;;;;;;1714428;28;20225;-66
2023/03/15 07:54:12;;;;;;;5.65;2.65;;;5.50;97.20;;;;;;1714414;28;20210;-67
2023/03/15 07:55:07;;;;;;;6.20;2.70;;;5.60;97.20;;;;;;1714280;28;20206;-67
2023/03/15 07:55:57;;;;;;;8.25;2.88;;;5.60;97.20;;;;;;1714441;28;20206;-66
2023/03/15 07:56:49;;;;;;;5.20;2.67;;;5.70;97.20;;;;;;1714568;28;20206;-67
2023/03/15 07:57:40;;;;;;;7.15;2.65;;;5.70;97.20;;;;;;1714220;28;20198;-67
2023/03/15 07:58:32;;;;;;;5.90;2.70;;;5.70;97.20;;;;;;1714434;28;20210;-67
2023/03/15 07:59:22;;;;;;;6.93;3.10;;;5.70;97.20;;;;;;1714354;28;20206;-66
2023/03/15 08:00:15;;;;;;;8.00;3.03;;;5.70;97.20;;;;;;1714498;28;20214;-67
2023/03/15 08:01:06;;;;;;;6.15;2.67;;;5.70;97.20;;;;;;1714030;28;20209;-66
2023/03/15 08:01:57;;;;;;;4.40;2.53;;;5.70;97.20;;;;;;1714127;28;20198;-66
2023/03/15 08:02:48;;;;;;;5.60;2.60;;;5.70;97.20;;;;;;1714491;28;20206;-66
2023/03/15 08:03:40;;;;;;;4.90;2.47;;;5.70;97.20;;;;;;1714524;28;20206;-67
2023/03/15 08:04:32;;;;;;;8.65;2.97;;;5.80;97.20;;;;;;1714113;28;20232;-66
2023/03/15 08:05:24;;;;;;;5.45;2.20;;;5.80;97.20;;;;;;1714462;28;20205;-66
2023/03/15 08:06:15;;;;;;;4.22;2.55;;;5.90;97.20;;;;;;1714323;28;20241;-66
2023/03/15 08:07:06;;;;;;;5.00;2.60;;;6.00;97.20;;;;;;1714439;28;20210;-67
2023/03/15 08:07:57;;;;;;;4.88;2.90;;;6.10;97.20;;;;;;1714118;28;20229;-68
2023/03/15 08:08:50;;;;;;;7.50;3.10;;;6.10;97.20;;;;;;1714373;28;20198;-66
2023/03/15 08:09:40;;;;;;;6.45;2.78;;;6.10;97.20;;;;;;1714382;28;20720;-66
2023/03/15 08:10:32;;;;;;;4.70;2.43;;;6.20;97.20;;;;;;1714320;28;20594;-69
2023/03/15 08:11:23;;;;;;;6.22;2.63;;;6.30;97.20;;;;;;1714456;28;20209;-66
2023/03/15 08:12:14;;;;;;;5.70;2.63;;;6.40;97.20;;;;;;1714360;28;20202;-67
2023/03/15 08:13:05;;;;;;;4.13;2.10;;;6.40;97.20;;;;;;1714339;28;20205;-69
2023/03/15 08:13:57;;;;;;;6.43;3.23;;;6.50;97.20;;;;;;1714326;28;20206;-66
2023/03/15 08:14:48;;;;;;;6.85;2.78;;;6.50;97.20;;;;;;1714135;28;20201;-66
2023/03/15 08:15:40;;;;;;;5.88;2.50;;;6.50;97.20;;;;;;1714264;28;20617;-66
2023/03/15 08:16:31;;;;;;;4.72;2.33;;;6.60;97.20;;;;;;1714333;28;20202;-68
2023/03/15 08:17:23;;;;;;;6.80;2.43;;;6.60;97.20;;;;;;1714233;28;20202;-66
2023/03/15 08:18:15;;;;;;;7.50;2.35;;;6.70;97.20;;;;;;1714284;28;20202;-66
2023/03/15 08:19:05;;;;;;;5.28;2.38;;;6.70;97.20;;;;;;1714308;28;20209;-68
2023/03/15 08:19:58;;;;;;;4.63;2.50;;;6.70;97.20;;;;;;1714317;28;20204;-66
2023/03/15 08:20:49;;;;;;;4.85;2.50;;;6.80;97.20;;;;;;1714283;28;20265;-66
2023/03/15 08:21:44;;;;;;;5.53;2.47;;;6.80;97.20;;;;;;1714363;28;20201;-67
2023/03/15 08:22:34;;;;;;;4.40;2.33;;;6.80;97.20;;;;;;1714293;28;20461;-67
2023/03/15 08:23:26;;;;;;;4.57;2.13;;;6.90;97.20;;;;;;1714363;28;20264;-67
2023/03/15 08:24:17;;;;;;;2.90;2.00;;;6.80;97.20;;;;;;1714001;28;20206;-66
2023/03/15 08:25:09;;;;;;;4.63;2.30;;;6.80;97.20;;;;;;1714312;28;20201;-68
2023/03/15 08:26:00;;;;;;;6.97;2.53;;;6.80;97.20;;;;;;1714225;28;20205;-67
2023/03/15 08:26:52;;;;;;;4.10;2.37;;;6.80;97.20;;;;;;1714301;28;20206;-66
2023/03/15 08:27:42;;;;;;;5.63;2.30;;;6.80;97.20;;;;;;1714063;28;20843;-66
2023/03/15 08:28:34;;;;;;;4.03;2.27;;;6.90;97.20;;;;;;1714208;28;20614;-66
2023/03/15 08:29:25;;;;;;;4.47;2.20;;;6.90;97.20;;;;;;1714087;28;20452;-66
2023/03/15 08:30:18;;;;;;;4.37;2.53;;;7.00;97.20;;;;;;1714086;28;20212;-69
2023/03/15 08:31:12;;;;;;;3.53;1.95;;;7.10;97.20;;;;;;1714266;28;20206;-65
2023/03/15 08:32:04;;;;;;;5.75;2.40;;;7.10;97.20;;;;;;1714323;28;20205;-66
2023/03/15 08:32:55;;;;;;;4.97;2.20;;;7.20;97.20;;;;;;1714217;28;20623;-66
2023/03/15 08:33:48;;;;;;;6.70;2.77;;;7.30;97.20;;;;;;1714309;28;20563;-67
2023/03/15 08:34:39;;;;;;;4.63;2.10;;;7.30;97.20;;;;;;1713912;28;20237;-67
2023/03/15 08:35:33;;;;;;;5.77;2.30;;;7.40;97.20;;;;;;1714084;28;20213;-66
2023/03/15 08:36:23;;;;;;;4.70;2.25;;;7.40;97.20;;;;;;1714252;28;20564;-66
2023/03/15 08:37:15;;;;;;;7.43;2.90;;;7.40;97.20;;;;;;1714209;28;20276;-68
2023/03/15 08:38:06;;;;;;;4.18;2.22;;;7.30;97.20;;;;;;1713950;28;20230;-67
2023/03/15 08:38:58;;;;;;;3.35;1.90;;;7.30;97.20;;;;;;1714170;28;20208;-66
2023/03/15 08:39:56;;;;;;;5.45;2.25;;;7.30;97.20;;;;;;1714251;28;20212;-66
2023/03/15 08:40:48;;;;;;;5.63;2.55;;;7.30;97.20;;;;;;1714146;28;20222;-67
2023/03/15 08:41:40;;;;;;;4.03;2.47;;;7.40;97.20;;;;;;1714260;28;20201;-67
2023/03/15 08:42:31;;;;;;;5.15;2.45;;;7.40;97.20;;;;;;1714144;28;20668;-67
2023/03/15 08:43:22;;;;;;;4.07;2.53;;;7.50;97.20;;;;;;1714260;28;20241;-67
2023/03/15 08:44:14;;;;;;;3.80;1.80;;;7.60;97.20;;;;;;1714205;28;20208;-67
2023/03/15 08:45:06;;;;;;;5.18;2.25;;;7.70;97.20;;;;;;1714244;28;20202;-67
2023/03/15 08:45:58;;;;;;;7.00;1.90;;;7.70;97.20;;;;;;1714087;28;20664;-66
2023/03/15 08:46:49;;;;;;;4.50;2.38;;;7.80;97.20;;;;;;1714129;28;20664;-67
2023/03/15 08:47:41;;;;;;;3.25;1.90;;;7.90;97.20;;;;;;1713956;28;20232;-66
2023/03/15 08:48:32;;;;;;;4.50;2.30;;;7.90;97.20;;;;;;1714058;28;20202;-66
2023/03/15 08:49:24;;;;;;;4.43;1.83;;;7.90;97.20;;;;;;1714173;28;20204;-70
2023/03/15 08:50:18;;;;;;;4.45;2.10;;;7.90;97.20;;;;;;1714028;28;20235;-68
2023/03/15 08:51:10;;;;;;;5.10;1.83;;;8.00;97.20;;;;;;1714124;28;20221;-66
2023/03/15 08:52:02;;;;;;;3.70;1.95;;;8.10;97.20;;;;;;1714114;28;20210;-66
2023/03/15 08:52:53;;;;;;;4.15;2.17;;;8.10;97.20;;;;;;1714011;28;20232;-69
2023/03/15 08:53:44;;;;;;;4.85;2.10;;;8.30;97.20;;;;;;1714096;28;20257;-66
2023/03/15 08:54:35;;;;;;;3.60;2.50;;;8.40;97.20;;;;;;1713754;28;20597;-66
2023/03/15 08:55:27;;;;;;;3.90;2.47;;;8.60;97.20;;;;;;1714052;28;20205;-66
2023/03/15 08:56:18;;;;;;;3.72;2.05;;;8.70;97.20;;;;;;1714058;28;20445;-66
2023/03/15 08:57:11;;;;;;;5.35;2.05;;;8.90;97.20;;;;;;1714207;28;20212;-67
2023/03/15 08:58:03;;;;;;;8.43;2.80;;;9.00;97.20;;;;;;1713905;28;20268;-67
2023/03/15 08:58:54;;;;;;;6.55;2.30;;;9.00;97.20;;;;;;1714017;28;20206;-67
2023/03/15 08:59:45;;;;;;;4.35;2.10;;;9.10;97.20;;;;;;1714072;28;20214;-67
2023/03/15 09:00:37;;;;;;;4.93;2.00;;;9.10;97.20;;;;;;1713972;28;20221;-66
2023/03/15 09:01:29;;;;;;;6.20;2.05;;;9.10;97.20;;;;;;1714110;28;20595;-65
2023/03/15 09:02:21;;;;;;;3.65;1.70;;;9.20;97.20;;;;;;1714097;28;20201;-66
2023/03/15 09:03:13;;;;;;;3.95;1.70;;;9.40;97.20;;;;;;1714147;28;20210;-67
2023/03/15 09:04:05;;;;;;;5.38;2.00;;;9.60;97.20;;;;;;1714073;28;20205;-66
2023/03/15 09:04:55;;;;;;;3.75;1.70;;;9.70;97.20;;;;;;1713825;28;20668;-67
2023/03/15 09:05:48;;;;;;;5.50;2.10;;;9.80;97.20;;;;;;1714035;28;20558;-67
2023/03/15 09:06:41;;;;;;;3.58;1.73;;;9.90;97.20;;;;;;1714066;28;20212;-67
2023/03/15 09:07:32;;;;;;;2.63;1.88;;;9.80;97.20;;;;;;1713859;28;20571;-66
2023/03/15 09:08:25;;;;;;;5.75;2.20;;;9.80;97.20;;;;;;1707479;28;20202;-67
2023/03/15 09:09:16;;;;;;;5.18;2.10;;;9.80;97.20;;;;;;1707261;28;20206;-67
2023/03/15 09:10:08;;;;;;;4.60;2.20;;;9.80;97.20;;;;;;1707515;28;20621;-69
2023/03/15 09:11:01;;;;;;;3.67;1.83;;;9.70;97.20;;;;;;1707236;29;20226;-67
2023/03/15 09:11:52;;;;;;;4.68;2.10;;;9.70;97.20;;;;;;1707354;28;20269;-67
2023/03/15 09:12:44;;;;;;;2.10;1.53;;;9.60;97.20;;;;;;1707440;28;20202;-67
2023/03/15 09:13:36;;;;;;;4.45;1.80;;;9.50;97.20;;;;;;1707295;28;20253;-66
2023/03/15 09:14:27;;;;;;;5.72;2.00;;;9.40;97.20;;;;;;1707126;28;20209;-69
2023/03/15 09:15:20;;;;;;;3.23;2.13;;;9.30;97.20;;;;;;1707439;28;20289;-67
2023/03/15 09:16:11;;;;;;;6.60;2.15;;;9.30;97.20;;;;;;1707329;28;20214;-66
2023/03/15 09:17:03;;;;;;;2.63;2.10;;;9.40;97.20;;;;;;1707456;28;20203;-67
2023/03/15 09:17:53;;;;;;;4.80;2.20;;;9.50;97.20;;;;;;1710125;28;20198;-67
2023/03/15 09:18:45;;;;;;;2.63;1.70;;;9.70;97.20;;;;;;1714048;28;20726;-67
2023/03/15 09:19:36;;;;;;;4.03;1.70;;;9.90;97.20;;;;;;1714044;28;20205;-67
2023/03/15 09:20:28;;;;;;;6.17;2.10;;;10.10;97.20;;;;;;1713950;28;20202;-66
2023/03/15 09:21:19;;;;;;;5.38;1.95;;;10.30;97.20;;;;;;1714077;28;20213;-67
2023/03/15 09:22:12;;;;;;;2.67;1.67;;;10.40;97.20;;;;;;1714120;28;20739;-67
2023/03/15 09:23:03;;;;;;;5.65;1.63;;;10.50;97.20;;;;;;1714017;28;20209;-67
2023/03/15 09:23:54;;;;;;;3.37;2.20;;;10.60;97.20;;;;;;1713924;28;20197;-66
2023/03/15 09:24:45;;;;;;;3.45;1.95;;;10.70;97.20;;;;;;1713836;28;20206;-67
2023/03/15 09:25:37;;;;;;;4.00;1.90;;;10.70;97.20;;;;;;1713877;28;20217;-67
2023/03/15 09:26:27;;;;;;;5.15;2.20;;;10.70;97.20;;;;;;1714140;28;20286;-66
2023/03/15 09:27:19;;;;;;;3.03;2.43;;;10.70;97.20;;;;;;1714015;28;20209;-66
2023/03/15 09:28:11;;;;;;;5.93;2.88;;;10.60;97.20;;;;;;1713744;28;20591;-67
2023/03/15 09:29:02;;;;;;;3.40;2.50;;;10.70;97.20;;;;;;1714051;28;20256;-65
2023/03/15 09:29:53;;;;;;;4.70;2.20;;;10.70;97.20;;;;;;1714027;28;20341;-66
2023/03/15 09:30:45;;;;;;;3.20;1.90;;;10.60;97.20;;;;;;1713900;28;20758;-67
2023/03/15 09:31:36;;;;;;;4.30;1.60;;;10.50;97.20;;;;;;1714008;28;20198;-69
2023/03/15 09:32:28;;;;;;;3.20;2.00;;;10.50;97.20;;;;;;1714007;28;20198;-66
2023/03/15 09:33:21;;;;;;;2.88;2.22;;;10.50;97.20;;;;;;1713945;28;20811;-65
2023/03/15 09:34:12;;;;;;;2.47;2.10;;;10.40;97.20;;;;;;1714015;28;20226;-66
2023/03/15 09:35:04;;;;;;;3.95;1.60;;;10.40;97.20;;;;;;1713844;28;20205;-66
2023/03/15 09:35:56;;;;;;;3.05;2.10;;;10.40;97.20;;;;;;1713830;28;20659;-66
2023/03/15 09:36:51;;;;;;;3.00;1.85;;;10.40;97.20;;;;;;1714003;28;20206;-66
2023/03/15 09:37:45;;;;;;;5.20;1.98;;;10.50;97.20;;;;;;1713774;28;20281;-67
2023/03/15 09:38:35;;;;;;;3.95;2.00;;;10.70;97.20;;;;;;1713836;28;20248;-67
2023/03/15 09:39:27;;;;;;;2.37;1.90;;;10.80;97.20;;;;;;1713929;28;20202;-67
2023/03/15 09:40:21;;;;;;;3.45;2.03;;;10.90;97.20;;;;;;1713893;28;20367;-67
2023/03/15 09:41:17;;;;;;;9.50;2.05;;;10.80;97.20;;;;;;1713957;28;20197;-67
2023/03/15 09:42:16;;;;;;;3.20;1.77;;;10.80;97.20;;;;;;1713984;28;20209;-68
2023/03/15 09:43:31;;;;;;;2.80;1.73;;;10.70;97.20;;;;;;1713988;28;20587;-68
2023/03/15 09:44:34;;;;;;;2.78;1.90;;;10.50;97.20;;;;;;1713685;28;20217;-66
2023/03/15 09:45:34;;;;;;;5.03;1.90;;;10.40;97.20;;;;;;1714107;28;20610;-67
2023/03/15 09:46:29;;;;;;;2.45;2.10;;;10.30;97.20;;;;;;1713906;28;20201;-68
2023/03/15 09:47:31;;;;;;;2.78;1.90;;;10.10;97.20;;;;;;1714013;28;20206;-67
2023/03/15 09:48:27;;;;;;;2.80;1.95;;;10.00;97.20;;;;;;1713697;28;20671;-67
2023/03/15 09:49:23;;;;;;;3.65;1.95;;;9.90;97.20;;;;;;1713967;28;20386;-67
2023/03/15 09:50:21;;;;;;;5.72;2.03;;;9.70;97.20;;;;;;1713822;28;20232;-67
2023/03/15 09:51:19;;;;;;;4.20;2.28;;;9.60;97.20;;;;;;1713961;28;20216;-67
2023/03/15 09:52:24;;;;;;;3.67;2.28;;;9.50;97.20;;;;;;1713956;28;20252;-66
2023/03/15 09:53:20;;;;;;;3.85;2.20;;;9.40;97.20;;;;;;1713890;28;20214;-67
2023/03/15 09:54:15;;;;;;;3.03;1.50;;;9.30;97.20;;;;;;1713880;28;20229;-67
2023/03/15 09:55:13;;;;;;;2.03;1.83;;;9.20;97.20;;;;;;1713970;28;20640;-67
2023/03/15 09:56:18;;;;;;;3.90;2.10;;;9.10;97.20;;;;;;1713909;28;20618;-67
2023/03/15 09:57:14;;;;;;;1.63;1.48;;;9.00;97.20;;;;;;1713847;28;20210;-67
2023/03/15 09:58:12;;;;;;;3.53;1.85;;;8.90;97.20;;;;;;1713716;28;20607;-68
2023/03/15 09:59:04;;;;;;;4.03;2.03;;;8.90;97.20;;;;;;1713891;28;20210;-66
2023/03/15 09:59:58;;;;;;;4.38;2.00;;;8.80;97.20;;;;;;1713720;28;20201;-69
2023/03/15 10:00:52;;;;;;;2.55;1.80;;;8.70;97.20;;;;;;1713829;28;20715;-67
2023/03/15 10:01:44;;;;;;;3.92;1.95;;;8.70;97.20;;;;;;1713891;28;20249;-66
2023/03/15 10:02:35;;;;;;;3.00;1.60;;;8.70;97.20;;;;;;1713822;28;20205;-67
2023/03/15 10:03:31;;;;;;;4.07;1.80;;;8.70;97.20;;;;;;1713889;28;20667;-66
2023/03/15 10:04:28;;;;;;;2.58;1.42;;;8.60;97.20;;;;;;1713663;28;20203;-67
2023/03/15 10:05:25;;;;;;;3.85;1.73;;;8.70;97.20;;;;;;1713916;28;20202;-69
2023/03/15 10:06:18;;;;;;;3.00;1.85;;;8.70;97.20;;;;;;1713901;28;20244;-67
2023/03/15 10:07:14;;;;;;;3.70;1.85;;;8.70;97.20;;;;;;1713869;28;20214;-68
2023/03/15 10:08:09;;;;;;;3.05;1.50;;;8.60;97.20;;;;;;1713658;28;20207;-67
2023/03/15 10:09:07;;;;;;;7.05;2.40;;;8.60;97.20;;;;;;1707226;28;20213;-66
2023/03/15 10:10:03;;;;;;;1.83;1.25;;;8.70;97.20;;;;;;1710272;28;20205;-67
2023/03/15 10:11:04;;;;;;;2.42;1.58;;;8.80;97.20;;;;;;1713861;28;20268;-67
2023/03/15 10:12:03;;;;;;;3.15;1.50;;;8.80;97.20;;;;;;1713889;28;20547;-66
2023/03/15 10:13:03;;;;;;;3.60;1.55;;;8.90;97.20;;;;;;1713823;28;20202;-68
2023/03/15 10:14:10;;;;;;;1.95;1.55;;;9.00;97.20;;;;;;1713865;28;20683;-67
2023/03/15 10:15:19;;;;;;;2.63;1.30;;;9.20;97.20;;;;;;1713665;28;20217;-66
2023/03/15 10:16:24;;;;;;;4.60;1.73;;;9.40;97.20;;;;;;1713773;28;20213;-66
2023/03/15 10:17:23;;;;;;;3.05;1.50;;;9.60;97.20;;;;;;1713915;28;20723;-69
2023/03/15 10:18:32;;;;;;;1.67;1.30;;;9.70;97.20;;;;;;1713582;28;20284;-67
2023/03/15 10:19:32;;;;;;;2.30;1.30;;;9.80;97.20;;;;;;1713850;28;20210;-66
2023/03/15 10:20:27;;;;;;;3.65;1.30;;;9.90;97.20;;;;;;1713858;28;20204;-67
2023/03/15 10:21:29;;;;;;;3.10;1.60;;;9.90;97.20;;;;;;1713815;28;20237;-68
2023/03/15 10:22:27;;;;;;;3.42;1.70;;;10.00;97.20;;;;;;1713902;28;20565;-67
2023/03/15 10:23:22;;;;;;;2.55;1.55;;;10.00;97.20;;;;;;1713883;28;20213;-66
2023/03/15 10:24:19;;;;;;;2.63;1.45;;;10.10;97.20;;;;;;1713779;28;20194;-66
2023/03/15 10:25:15;;;;;;;3.25;1.30;;;10.30;97.20;;;;;;1715006;28;20205;-67
2023/03/15 10:26:11;;;;;;;3.05;1.75;;;10.40;97.20;;;;;;1715080;28;20268;-67
2023/03/15 10:27:14;;;;;;;3.10;1.45;;;10.60;97.20;;;;;;1715019;28;20209;-67
2023/03/15 10:28:11;;;;;;;4.38;1.60;;;10.80;97.20;;;;;;1714773;28;20206;-67
2023/03/15 10:29:08;;;;;;;2.30;1.25;;;11.10;97.20;;;;;;1714604;28;20224;-67
2023/03/15 10:30:02;;;;;;;6.38;1.75;;;11.30;97.20;;;;;;1715117;28;20210;-66
2023/03/15 10:30:57;;;;;;;6.30;1.63;;;11.70;97.20;;;;;;1714793;28;20241;-67
2023/03/15 10:31:51;;;;;;;3.53;1.30;;;12.60;97.20;;;;;;1715076;28;20208;-67
2023/03/15 10:32:44;;;;;;;2.53;1.60;;;13.20;97.20;;;;;;1714997;28;20202;-69
2023/03/15 10:33:38;;;;;;;3.25;1.00;;;13.80;97.20;;;;;;1714950;28;20206;-66
2023/03/15 10:34:29;;;;;;;2.70;1.10;;;14.20;97.20;;;;;;1714625;28;20233;-66
2023/03/15 10:35:20;;;;;;;2.65;1.10;;;14.40;97.20;;;;;;1715029;28;20573;-66
2023/03/15 10:36:17;;;;;;;3.60;1.50;;;14.50;97.20;;;;;;1714914;28;20228;-66
2023/03/15 10:37:08;;;;;;;2.42;1.40;;;14.40;97.20;;;;;;1715046;28;20453;-66
2023/03/15 10:38:01;;;;;;;2.60;1.15;;;14.40;97.20;;;;;;1714724;28;20209;-66